sensor_id;sensor_type;location;lat;lon;timestamp;P1;durP1;ratioP1;P2;durP2;ratioP2
81830;SDS011;71268;44.086;3.070;2023-12-04T00:01:09;6.68;;;2.97;;
81830;SDS011;71268;44.086;3.070;2023-12-04T00:03:35;7.78;;;3.50;;
81830;SDS011;71268;44.086;3.070;2023-12-04T00:06:01;8.93;;;3.80;;
81830;SDS011;71268;44.086;3.070;2023-12-04T00:08:27;13.98;;;5.50;;
81830;SDS011;71268;44.086;3.070;2023-12-04T00:10:53;9.07;;;4.97;;
81830;SDS011;71268;44.086;3.070;2023-12-04T00:13:19;11.00;;;3.97;;
81830;SDS011;71268;44.086;3.070;2023-12-04T00:15:45;7.80;;;3.42;;
81830;SDS011;71268;44.086;3.070;2023-12-04T00:18:11;7.43;;;4.28;;
81830;SDS011;71268;44.086;3.070;2023-12-04T00:20:37;7.32;;;2.90;;
81830;SDS011;71268;44.086;3.070;2023-12-04T00:23:03;8.52;;;3.70;;
81830;SDS011;71268;44.086;3.070;2023-12-04T00:25:29;7.20;;;2.75;;
81830;SDS011;71268;44.086;3.070;2023-12-04T00:27:55;6.30;;;2.45;;
81830;SDS011;71268;44.086;3.070;2023-12-04T00:30:21;6.60;;;2.03;;
81830;SDS011;71268;44.086;3.070;2023-12-04T00:32:47;4.28;;;2.03;;
81830;SDS011;71268;44.086;3.070;2023-12-04T00:35:13;7.32;;;3.20;;
81830;SDS011;71268;44.086;3.070;2023-12-04T00:37:39;5.53;;;3.08;;
81830;SDS011;71268;44.086;3.070;2023-12-04T00:40:05;6.55;;;2.63;;
81830;SDS011;71268;44.086;3.070;2023-12-04T00:42:35;6.10;;;2.25;;
81830;SDS011;71268;44.086;3.070;2023-12-04T00:45:01;5.68;;;2.53;;
81830;SDS011;71268;44.086;3.070;2023-12-04T00:47:28;5.78;;;1.92;;
81830;SDS011;71268;44.086;3.070;2023-12-04T00:49:54;8.10;;;2.67;;
81830;SDS011;71268;44.086;3.070;2023-12-04T00:52:20;7.70;;;3.17;;
81830;SDS011;71268;44.086;3.070;2023-12-04T00:54:46;6.57;;;2.38;;
81830;SDS011;71268;44.086;3.070;2023-12-04T00:57:12;5.50;;;2.40;;
81830;SDS011;71268;44.086;3.070;2023-12-04T00:59:38;10.07;;;5.38;;
81830;SDS011;71268;44.086;3.070;2023-12-04T01:02:06;5.57;;;3.47;;
81830;SDS011;71268;44.086;3.070;2023-12-04T01:04:32;14.45;;;7.20;;
81830;SDS011;71268;44.086;3.070;2023-12-04T01:06:58;10.68;;;3.63;;
81830;SDS011;71268;44.086;3.070;2023-12-04T01:09:24;9.85;;;4.38;;
81830;SDS011;71268;44.086;3.070;2023-12-04T01:11:52;8.23;;;3.95;;
81830;SDS011;71268;44.086;3.070;2023-12-04T01:14:18;9.85;;;5.22;;
81830;SDS011;71268;44.086;3.070;2023-12-04T01:16:44;5.47;;;2.72;;
81830;SDS011;71268;44.086;3.070;2023-12-04T01:19:10;8.18;;;3.35;;
81830;SDS011;71268;44.086;3.070;2023-12-04T01:21:36;7.13;;;2.65;;
81830;SDS011;71268;44.086;3.070;2023-12-04T01:24:02;5.78;;;2.28;;
81830;SDS011;71268;44.086;3.070;2023-12-04T01:26:28;7.47;;;2.47;;
81830;SDS011;71268;44.086;3.070;2023-12-04T01:28:55;5.15;;;2.17;;
81830;SDS011;71268;44.086;3.070;2023-12-04T01:31:21;4.78;;;2.13;;
81830;SDS011;71268;44.086;3.070;2023-12-04T01:33:47;4.82;;;1.98;;
81830;SDS011;71268;44.086;3.070;2023-12-04T01:36:13;6.50;;;2.30;;
81830;SDS011;71268;44.086;3.070;2023-12-04T01:38:39;6.13;;;2.58;;
81830;SDS011;71268;44.086;3.070;2023-12-04T01:41:05;6.10;;;2.17;;
81830;SDS011;71268;44.086;3.070;2023-12-04T01:43:31;7.53;;;2.25;;
81830;SDS011;71268;44.086;3.070;2023-12-04T01:45:57;4.57;;;1.75;;
81830;SDS011;71268;44.086;3.070;2023-12-04T01:48:25;4.78;;;2.15;;
81830;SDS011;71268;44.086;3.070;2023-12-04T01:50:51;5.88;;;2.00;;
81830;SDS011;71268;44.086;3.070;2023-12-04T01:53:17;4.85;;;1.77;;
81830;SDS011;71268;44.086;3.070;2023-12-04T01:55:43;4.07;;;2.00;;
81830;SDS011;71268;44.086;3.070;2023-12-04T01:58:10;4.97;;;1.90;;
81830;SDS011;71268;44.086;3.070;2023-12-04T02:00:36;5.43;;;2.22;;
81830;SDS011;71268;44.086;3.070;2023-12-04T02:03:02;7.05;;;2.58;;
81830;SDS011;71268;44.086;3.070;2023-12-04T02:05:29;4.32;;;2.13;;
81830;SDS011;71268;44.086;3.070;2023-12-04T02:07:55;6.20;;;2.50;;
81830;SDS011;71268;44.086;3.070;2023-12-04T02:10:21;3.92;;;2.10;;
81830;SDS011;71268;44.086;3.070;2023-12-04T02:12:48;7.90;;;4.00;;
81830;SDS011;71268;44.086;3.070;2023-12-04T02:15:14;5.13;;;2.47;;
81830;SDS011;71268;44.086;3.070;2023-12-04T02:17:40;5.05;;;2.67;;
81830;SDS011;71268;44.086;3.070;2023-12-04T02:20:07;6.35;;;3.45;;
81830;SDS011;71268;44.086;3.070;2023-12-04T02:22:34;5.80;;;3.05;;
81830;SDS011;71268;44.086;3.070;2023-12-04T02:25:00;4.53;;;2.45;;
81830;SDS011;71268;44.086;3.070;2023-12-04T02:27:27;5.40;;;2.70;;
81830;SDS011;71268;44.086;3.070;2023-12-04T02:29:58;4.65;;;2.78;;
81830;SDS011;71268;44.086;3.070;2023-12-04T02:32:24;7.38;;;2.83;;
81830;SDS011;71268;44.086;3.070;2023-12-04T02:34:52;6.20;;;2.63;;
81830;SDS011;71268;44.086;3.070;2023-12-04T02:37:19;6.93;;;2.25;;
81830;SDS011;71268;44.086;3.070;2023-12-04T02:39:46;6.78;;;2.85;;
81830;SDS011;71268;44.086;3.070;2023-12-04T02:42:14;5.85;;;2.10;;
81830;SDS011;71268;44.086;3.070;2023-12-04T02:44:42;8.32;;;2.70;;
81830;SDS011;71268;44.086;3.070;2023-12-04T02:47:08;5.63;;;2.08;;
81830;SDS011;71268;44.086;3.070;2023-12-04T02:49:34;5.63;;;1.95;;
81830;SDS011;71268;44.086;3.070;2023-12-04T02:52:00;7.00;;;2.35;;
81830;SDS011;71268;44.086;3.070;2023-12-04T02:54:27;8.68;;;2.72;;
81830;SDS011;71268;44.086;3.070;2023-12-04T02:56:53;6.65;;;2.15;;
81830;SDS011;71268;44.086;3.070;2023-12-04T02:59:19;7.65;;;1.80;;
81830;SDS011;71268;44.086;3.070;2023-12-04T03:01:45;5.00;;;2.42;;
81830;SDS011;71268;44.086;3.070;2023-12-04T03:04:12;3.90;;;1.98;;
81830;SDS011;71268;44.086;3.070;2023-12-04T03:06:38;4.38;;;2.42;;
81830;SDS011;71268;44.086;3.070;2023-12-04T03:09:04;5.68;;;1.88;;
81830;SDS011;71268;44.086;3.070;2023-12-04T03:11:30;5.45;;;1.98;;
81830;SDS011;71268;44.086;3.070;2023-12-04T03:13:56;7.43;;;2.00;;
81830;SDS011;71268;44.086;3.070;2023-12-04T03:16:22;4.68;;;1.85;;
81830;SDS011;71268;44.086;3.070;2023-12-04T03:18:48;3.90;;;2.00;;
81830;SDS011;71268;44.086;3.070;2023-12-04T03:21:14;3.58;;;1.98;;
81830;SDS011;71268;44.086;3.070;2023-12-04T03:23:40;7.78;;;2.17;;
81830;SDS011;71268;44.086;3.070;2023-12-04T03:26:06;3.17;;;1.75;;
81830;SDS011;71268;44.086;3.070;2023-12-04T03:28:32;2.90;;;1.60;;
81830;SDS011;71268;44.086;3.070;2023-12-04T03:30:58;4.95;;;1.75;;
81830;SDS011;71268;44.086;3.070;2023-12-04T03:33:24;6.35;;;1.90;;
81830;SDS011;71268;44.086;3.070;2023-12-04T03:35:50;4.35;;;1.85;;
81830;SDS011;71268;44.086;3.070;2023-12-04T03:38:16;5.78;;;2.17;;
81830;SDS011;71268;44.086;3.070;2023-12-04T03:40:42;4.88;;;1.77;;
81830;SDS011;71268;44.086;3.070;2023-12-04T03:43:09;7.25;;;2.70;;
81830;SDS011;71268;44.086;3.070;2023-12-04T03:45:34;4.40;;;2.00;;
81830;SDS011;71268;44.086;3.070;2023-12-04T03:48:00;3.90;;;1.95;;
81830;SDS011;71268;44.086;3.070;2023-12-04T03:50:26;3.40;;;1.52;;
81830;SDS011;71268;44.086;3.070;2023-12-04T03:52:52;5.88;;;2.35;;
81830;SDS011;71268;44.086;3.070;2023-12-04T03:55:18;7.95;;;2.53;;
81830;SDS011;71268;44.086;3.070;2023-12-04T03:57:45;2.97;;;1.40;;
81830;SDS011;71268;44.086;3.070;2023-12-04T04:00:11;3.42;;;1.30;;
81830;SDS011;71268;44.086;3.070;2023-12-04T04:02:38;5.72;;;2.05;;
81830;SDS011;71268;44.086;3.070;2023-12-04T04:05:05;5.43;;;1.35;;
81830;SDS011;71268;44.086;3.070;2023-12-04T04:07:31;4.45;;;1.85;;
81830;SDS011;71268;44.086;3.070;2023-12-04T04:09:57;3.65;;;1.60;;
81830;SDS011;71268;44.086;3.070;2023-12-04T04:12:23;3.78;;;1.60;;
81830;SDS011;71268;44.086;3.070;2023-12-04T04:14:49;4.03;;;1.70;;
81830;SDS011;71268;44.086;3.070;2023-12-04T04:17:15;4.13;;;1.60;;
81830;SDS011;71268;44.086;3.070;2023-12-04T04:19:41;4.13;;;1.30;;
81830;SDS011;71268;44.086;3.070;2023-12-04T04:22:07;6.63;;;1.67;;
81830;SDS011;71268;44.086;3.070;2023-12-04T04:24:33;4.35;;;1.60;;
81830;SDS011;71268;44.086;3.070;2023-12-04T04:26:59;3.40;;;1.40;;
81830;SDS011;71268;44.086;3.070;2023-12-04T04:29:25;5.25;;;1.30;;
81830;SDS011;71268;44.086;3.070;2023-12-04T04:31:51;3.38;;;1.67;;
81830;SDS011;71268;44.086;3.070;2023-12-04T04:34:17;5.43;;;1.27;;
81830;SDS011;71268;44.086;3.070;2023-12-04T04:36:43;3.03;;;0.88;;
81830;SDS011;71268;44.086;3.070;2023-12-04T04:39:10;2.33;;;0.88;;
81830;SDS011;71268;44.086;3.070;2023-12-04T04:41:36;3.60;;;1.30;;
81830;SDS011;71268;44.086;3.070;2023-12-04T04:44:03;2.05;;;0.98;;
81830;SDS011;71268;44.086;3.070;2023-12-04T04:46:29;2.33;;;1.00;;
81830;SDS011;71268;44.086;3.070;2023-12-04T04:48:55;5.85;;;1.63;;
81830;SDS011;71268;44.086;3.070;2023-12-04T04:51:21;3.40;;;1.15;;
81830;SDS011;71268;44.086;3.070;2023-12-04T04:53:47;2.58;;;1.10;;
81830;SDS011;71268;44.086;3.070;2023-12-04T04:56:13;3.70;;;1.15;;
81830;SDS011;71268;44.086;3.070;2023-12-04T04:58:40;4.47;;;0.95;;
81830;SDS011;71268;44.086;3.070;2023-12-04T05:01:06;3.78;;;0.98;;
81830;SDS011;71268;44.086;3.070;2023-12-04T05:03:32;2.25;;;1.00;;
81830;SDS011;71268;44.086;3.070;2023-12-04T05:05:58;4.75;;;1.33;;
81830;SDS011;71268;44.086;3.070;2023-12-04T05:08:24;4.18;;;1.45;;
81830;SDS011;71268;44.086;3.070;2023-12-04T05:10:50;3.85;;;1.17;;
81830;SDS011;71268;44.086;3.070;2023-12-04T05:13:16;2.50;;;1.20;;
81830;SDS011;71268;44.086;3.070;2023-12-04T05:15:42;6.15;;;1.38;;
81830;SDS011;71268;44.086;3.070;2023-12-04T05:18:08;4.25;;;1.48;;
81830;SDS011;71268;44.086;3.070;2023-12-04T05:20:34;2.88;;;1.30;;
81830;SDS011;71268;44.086;3.070;2023-12-04T05:23:00;3.15;;;1.08;;
81830;SDS011;71268;44.086;3.070;2023-12-04T05:25:26;3.42;;;1.08;;
81830;SDS011;71268;44.086;3.070;2023-12-04T05:27:52;3.80;;;1.25;;
81830;SDS011;71268;44.086;3.070;2023-12-04T05:30:18;2.95;;;1.20;;
81830;SDS011;71268;44.086;3.070;2023-12-04T05:32:44;2.55;;;1.08;;
81830;SDS011;71268;44.086;3.070;2023-12-04T05:35:10;3.97;;;1.10;;
81830;SDS011;71268;44.086;3.070;2023-12-04T05:37:36;2.95;;;1.15;;
81830;SDS011;71268;44.086;3.070;2023-12-04T05:40:03;2.08;;;1.20;;
81830;SDS011;71268;44.086;3.070;2023-12-04T05:42:29;3.22;;;1.13;;
81830;SDS011;71268;44.086;3.070;2023-12-04T05:44:55;2.85;;;1.48;;
81830;SDS011;71268;44.086;3.070;2023-12-04T05:47:23;6.72;;;1.33;;
81830;SDS011;71268;44.086;3.070;2023-12-04T05:49:49;3.17;;;1.13;;
81830;SDS011;71268;44.086;3.070;2023-12-04T05:52:14;3.63;;;1.15;;
81830;SDS011;71268;44.086;3.070;2023-12-04T05:54:40;4.70;;;1.38;;
81830;SDS011;71268;44.086;3.070;2023-12-04T05:57:06;3.25;;;1.38;;
81830;SDS011;71268;44.086;3.070;2023-12-04T05:59:32;3.70;;;1.92;;
81830;SDS011;71268;44.086;3.070;2023-12-04T06:01:59;3.92;;;1.13;;
81830;SDS011;71268;44.086;3.070;2023-12-04T06:04:26;3.67;;;1.00;;
81830;SDS011;71268;44.086;3.070;2023-12-04T06:06:52;4.00;;;1.67;;
81830;SDS011;71268;44.086;3.070;2023-12-04T06:09:18;2.60;;;1.27;;
81830;SDS011;71268;44.086;3.070;2023-12-04T06:11:44;4.88;;;1.73;;
81830;SDS011;71268;44.086;3.070;2023-12-04T06:14:10;4.75;;;1.88;;
81830;SDS011;71268;44.086;3.070;2023-12-04T06:16:36;5.38;;;1.42;;
81830;SDS011;71268;44.086;3.070;2023-12-04T06:19:02;6.55;;;2.08;;
81830;SDS011;71268;44.086;3.070;2023-12-04T06:21:29;3.47;;;1.60;;
81830;SDS011;71268;44.086;3.070;2023-12-04T06:23:55;4.38;;;1.50;;
81830;SDS011;71268;44.086;3.070;2023-12-04T06:26:22;3.25;;;1.30;;
81830;SDS011;71268;44.086;3.070;2023-12-04T06:28:48;4.78;;;1.67;;
81830;SDS011;71268;44.086;3.070;2023-12-04T06:31:14;3.10;;;1.50;;
81830;SDS011;71268;44.086;3.070;2023-12-04T06:33:41;5.13;;;1.65;;
81830;SDS011;71268;44.086;3.070;2023-12-04T06:36:07;7.97;;;1.80;;
81830;SDS011;71268;44.086;3.070;2023-12-04T06:38:33;4.05;;;1.55;;
81830;SDS011;71268;44.086;3.070;2023-12-04T06:41:03;6.32;;;1.65;;
81830;SDS011;71268;44.086;3.070;2023-12-04T06:43:29;3.30;;;1.30;;
81830;SDS011;71268;44.086;3.070;2023-12-04T06:45:56;5.78;;;2.13;;
81830;SDS011;71268;44.086;3.070;2023-12-04T06:48:24;2.95;;;1.25;;
81830;SDS011;71268;44.086;3.070;2023-12-04T06:50:50;5.60;;;1.60;;
81830;SDS011;71268;44.086;3.070;2023-12-04T06:53:16;3.30;;;1.38;;
81830;SDS011;71268;44.086;3.070;2023-12-04T06:55:42;2.13;;;1.00;;
81830;SDS011;71268;44.086;3.070;2023-12-04T06:58:08;3.67;;;1.40;;
81830;SDS011;71268;44.086;3.070;2023-12-04T07:00:34;3.95;;;1.67;;
81830;SDS011;71268;44.086;3.070;2023-12-04T07:03:00;4.53;;;1.55;;
81830;SDS011;71268;44.086;3.070;2023-12-04T07:05:26;3.78;;;1.65;;
81830;SDS011;71268;44.086;3.070;2023-12-04T07:07:52;7.05;;;1.70;;
81830;SDS011;71268;44.086;3.070;2023-12-04T07:10:18;3.50;;;1.50;;
81830;SDS011;71268;44.086;3.070;2023-12-04T07:12:44;5.95;;;1.92;;
81830;SDS011;71268;44.086;3.070;2023-12-04T07:15:11;2.83;;;1.08;;
81830;SDS011;71268;44.086;3.070;2023-12-04T07:17:37;3.58;;;1.17;;
81830;SDS011;71268;44.086;3.070;2023-12-04T07:20:03;2.53;;;0.90;;
81830;SDS011;71268;44.086;3.070;2023-12-04T07:22:31;4.03;;;1.38;;
81830;SDS011;71268;44.086;3.070;2023-12-04T07:24:57;4.65;;;1.42;;
81830;SDS011;71268;44.086;3.070;2023-12-04T07:27:23;4.75;;;1.20;;
81830;SDS011;71268;44.086;3.070;2023-12-04T07:29:49;2.53;;;1.17;;
81830;SDS011;71268;44.086;3.070;2023-12-04T07:32:15;2.72;;;1.30;;
81830;SDS011;71268;44.086;3.070;2023-12-04T07:34:43;5.07;;;1.33;;
81830;SDS011;71268;44.086;3.070;2023-12-04T07:37:09;4.68;;;1.55;;
81830;SDS011;71268;44.086;3.070;2023-12-04T07:39:35;2.05;;;0.95;;
81830;SDS011;71268;44.086;3.070;2023-12-04T07:42:01;3.15;;;1.13;;
81830;SDS011;71268;44.086;3.070;2023-12-04T07:44:27;2.70;;;1.10;;
81830;SDS011;71268;44.086;3.070;2023-12-04T07:46:53;3.85;;;1.33;;
81830;SDS011;71268;44.086;3.070;2023-12-04T07:49:19;3.63;;;1.13;;
81830;SDS011;71268;44.086;3.070;2023-12-04T07:51:45;2.60;;;1.15;;
81830;SDS011;71268;44.086;3.070;2023-12-04T07:54:11;2.05;;;1.00;;
81830;SDS011;71268;44.086;3.070;2023-12-04T07:56:37;3.33;;;1.35;;
81830;SDS011;71268;44.086;3.070;2023-12-04T07:59:03;1.80;;;1.30;;
81830;SDS011;71268;44.086;3.070;2023-12-04T08:01:29;2.58;;;0.95;;
81830;SDS011;71268;44.086;3.070;2023-12-04T08:03:55;2.28;;;1.08;;
81830;SDS011;71268;44.086;3.070;2023-12-04T08:06:21;2.22;;;1.20;;
81830;SDS011;71268;44.086;3.070;2023-12-04T08:08:48;1.45;;;0.85;;
81830;SDS011;71268;44.086;3.070;2023-12-04T08:11:14;3.10;;;0.77;;
81830;SDS011;71268;44.086;3.070;2023-12-04T08:13:40;3.17;;;0.70;;
81830;SDS011;71268;44.086;3.070;2023-12-04T08:16:12;1.13;;;0.70;;
81830;SDS011;71268;44.086;3.070;2023-12-04T08:18:40;1.02;;;0.57;;
81830;SDS011;71268;44.086;3.070;2023-12-04T08:21:06;2.35;;;0.70;;
81830;SDS011;71268;44.086;3.070;2023-12-04T08:23:32;1.35;;;0.52;;
81830;SDS011;71268;44.086;3.070;2023-12-04T08:25:58;1.67;;;0.43;;
81830;SDS011;71268;44.086;3.070;2023-12-04T08:28:24;0.75;;;0.35;;
81830;SDS011;71268;44.086;3.070;2023-12-04T08:30:50;1.73;;;0.40;;
81830;SDS011;71268;44.086;3.070;2023-12-04T08:33:16;3.00;;;0.60;;
81830;SDS011;71268;44.086;3.070;2023-12-04T08:35:45;1.50;;;0.65;;
81830;SDS011;71268;44.086;3.070;2023-12-04T08:38:11;1.15;;;0.50;;
81830;SDS011;71268;44.086;3.070;2023-12-04T08:40:37;1.95;;;0.50;;
81830;SDS011;71268;44.086;3.070;2023-12-04T08:43:03;2.78;;;0.43;;
81830;SDS011;71268;44.086;3.070;2023-12-04T08:45:29;0.45;;;0.25;;
81830;SDS011;71268;44.086;3.070;2023-12-04T08:47:55;1.48;;;0.40;;
81830;SDS011;71268;44.086;3.070;2023-12-04T08:50:21;1.63;;;0.45;;
81830;SDS011;71268;44.086;3.070;2023-12-04T08:52:47;0.90;;;0.40;;
81830;SDS011;71268;44.086;3.070;2023-12-04T08:55:13;1.13;;;0.17;;
81830;SDS011;71268;44.086;3.070;2023-12-04T08:57:39;2.35;;;0.40;;
81830;SDS011;71268;44.086;3.070;2023-12-04T09:00:05;0.60;;;0.30;;
81830;SDS011;71268;44.086;3.070;2023-12-04T09:02:33;0.40;;;0.25;;
81830;SDS011;71268;44.086;3.070;2023-12-04T09:04:59;2.55;;;0.52;;
81830;SDS011;71268;44.086;3.070;2023-12-04T09:07:25;0.93;;;0.25;;
81830;SDS011;71268;44.086;3.070;2023-12-04T09:09:51;1.13;;;0.93;;
81830;SDS011;71268;44.086;3.070;2023-12-04T09:12:17;1.35;;;0.47;;
81830;SDS011;71268;44.086;3.070;2023-12-04T09:14:43;3.45;;;0.88;;
81830;SDS011;71268;44.086;3.070;2023-12-04T09:17:10;2.35;;;0.40;;
81830;SDS011;71268;44.086;3.070;2023-12-04T09:19:36;0.57;;;0.20;;
81830;SDS011;71268;44.086;3.070;2023-12-04T09:22:02;2.50;;;0.30;;
81830;SDS011;71268;44.086;3.070;2023-12-04T09:24:28;1.52;;;0.30;;
81830;SDS011;71268;44.086;3.070;2023-12-04T09:26:56;0.30;;;0.15;;
81830;SDS011;71268;44.086;3.070;2023-12-04T09:29:22;0.88;;;0.30;;
81830;SDS011;71268;44.086;3.070;2023-12-04T09:31:49;1.00;;;0.40;;
81830;SDS011;71268;44.086;3.070;2023-12-04T09:34:15;1.20;;;0.30;;
81830;SDS011;71268;44.086;3.070;2023-12-04T09:36:43;1.15;;;0.40;;
81830;SDS011;71268;44.086;3.070;2023-12-04T09:39:09;0.73;;;0.28;;
81830;SDS011;71268;44.086;3.070;2023-12-04T09:41:35;1.50;;;0.30;;
81830;SDS011;71268;44.086;3.070;2023-12-04T09:44:02;2.75;;;0.65;;
81830;SDS011;71268;44.086;3.070;2023-12-04T09:46:28;3.35;;;0.95;;
81830;SDS011;71268;44.086;3.070;2023-12-04T09:48:55;1.63;;;0.43;;
81830;SDS011;71268;44.086;3.070;2023-12-04T09:51:22;1.10;;;0.40;;
81830;SDS011;71268;44.086;3.070;2023-12-04T09:53:48;1.38;;;0.50;;
81830;SDS011;71268;44.086;3.070;2023-12-04T09:56:15;2.70;;;0.70;;
81830;SDS011;71268;44.086;3.070;2023-12-04T09:58:43;1.55;;;0.80;;
81830;SDS011;71268;44.086;3.070;2023-12-04T10:01:10;2.83;;;0.90;;
81830;SDS011;71268;44.086;3.070;2023-12-04T10:03:37;2.75;;;1.20;;
81830;SDS011;71268;44.086;3.070;2023-12-04T10:06:04;3.72;;;1.45;;
81830;SDS011;71268;44.086;3.070;2023-12-04T10:08:30;7.13;;;3.35;;
81830;SDS011;71268;44.086;3.070;2023-12-04T10:10:56;4.30;;;2.10;;
81830;SDS011;71268;44.086;3.070;2023-12-04T10:13:23;4.05;;;1.70;;
81830;SDS011;71268;44.086;3.070;2023-12-04T10:15:50;2.88;;;1.27;;
81830;SDS011;71268;44.086;3.070;2023-12-04T10:18:30;3.65;;;1.08;;
81830;SDS011;71268;44.086;3.070;2023-12-04T10:20:56;7.38;;;1.95;;
81830;SDS011;71268;44.086;3.070;2023-12-04T10:23:44;3.63;;;1.58;;
81830;SDS011;71268;44.086;3.070;2023-12-04T10:26:09;2.75;;;1.05;;
81830;SDS011;71268;44.086;3.070;2023-12-04T10:28:41;2.80;;;0.80;;
81830;SDS011;71268;44.086;3.070;2023-12-04T10:31:24;2.88;;;0.88;;
81830;SDS011;71268;44.086;3.070;2023-12-04T10:33:50;3.05;;;1.17;;
81830;SDS011;71268;44.086;3.070;2023-12-04T10:36:16;1.63;;;0.60;;
81830;SDS011;71268;44.086;3.070;2023-12-04T10:38:44;3.72;;;1.38;;
81830;SDS011;71268;44.086;3.070;2023-12-04T10:41:13;2.78;;;1.05;;
81830;SDS011;71268;44.086;3.070;2023-12-04T10:43:46;2.90;;;1.25;;
81830;SDS011;71268;44.086;3.070;2023-12-04T10:46:12;3.53;;;1.40;;
81830;SDS011;71268;44.086;3.070;2023-12-04T10:48:41;4.18;;;1.90;;
81830;SDS011;71268;44.086;3.070;2023-12-04T10:51:07;7.45;;;2.13;;
81830;SDS011;71268;44.086;3.070;2023-12-04T10:53:33;3.97;;;1.80;;
81830;SDS011;71268;44.086;3.070;2023-12-04T10:55:59;3.45;;;1.60;;
81830;SDS011;71268;44.086;3.070;2023-12-04T10:58:27;3.92;;;1.42;;
81830;SDS011;71268;44.086;3.070;2023-12-04T11:00:53;3.22;;;1.50;;
81830;SDS011;71268;44.086;3.070;2023-12-04T11:03:32;3.80;;;1.10;;
81830;SDS011;71268;44.086;3.070;2023-12-04T11:06:00;3.67;;;1.30;;
81830;SDS011;71268;44.086;3.070;2023-12-04T11:08:29;4.43;;;1.60;;
81830;SDS011;71268;44.086;3.070;2023-12-04T11:11:00;3.80;;;1.42;;
81830;SDS011;71268;44.086;3.070;2023-12-04T11:13:34;3.25;;;1.38;;
81830;SDS011;71268;44.086;3.070;2023-12-04T11:16:01;2.97;;;1.15;;
81830;SDS011;71268;44.086;3.070;2023-12-04T11:18:27;2.65;;;1.05;;
81830;SDS011;71268;44.086;3.070;2023-12-04T11:21:04;4.00;;;1.45;;
81830;SDS011;71268;44.086;3.070;2023-12-04T11:23:31;4.30;;;1.15;;
81830;SDS011;71268;44.086;3.070;2023-12-04T11:25:57;3.97;;;0.90;;
81830;SDS011;71268;44.086;3.070;2023-12-04T11:28:25;3.20;;;1.67;;
81830;SDS011;71268;44.086;3.070;2023-12-04T11:30:52;3.50;;;1.30;;
81830;SDS011;71268;44.086;3.070;2023-12-04T11:33:19;4.05;;;1.40;;
81830;SDS011;71268;44.086;3.070;2023-12-04T11:35:45;5.28;;;1.58;;
81830;SDS011;71268;44.086;3.070;2023-12-04T11:38:14;2.90;;;1.15;;
81830;SDS011;71268;44.086;3.070;2023-12-04T11:40:41;3.78;;;1.30;;
81830;SDS011;71268;44.086;3.070;2023-12-04T11:43:25;3.58;;;1.27;;
81830;SDS011;71268;44.086;3.070;2023-12-04T11:45:52;2.72;;;1.17;;
81830;SDS011;71268;44.086;3.070;2023-12-04T11:48:24;3.00;;;1.30;;
81830;SDS011;71268;44.086;3.070;2023-12-04T11:50:50;1.90;;;0.88;;
81830;SDS011;71268;44.086;3.070;2023-12-04T11:53:17;1.98;;;0.95;;
81830;SDS011;71268;44.086;3.070;2023-12-04T11:55:43;2.65;;;1.20;;
81830;SDS011;71268;44.086;3.070;2023-12-04T11:58:09;2.17;;;0.80;;
81830;SDS011;71268;44.086;3.070;2023-12-04T12:00:35;1.90;;;0.90;;
81830;SDS011;71268;44.086;3.070;2023-12-04T12:03:04;3.50;;;1.55;;
81830;SDS011;71268;44.086;3.070;2023-12-04T12:05:31;2.85;;;1.10;;
81830;SDS011;71268;44.086;3.070;2023-12-04T12:07:59;2.40;;;0.70;;
81830;SDS011;71268;44.086;3.070;2023-12-04T12:10:26;1.92;;;0.80;;
81830;SDS011;71268;44.086;3.070;2023-12-04T12:12:52;3.10;;;0.68;;
81830;SDS011;71268;44.086;3.070;2023-12-04T12:15:18;2.88;;;1.00;;
81830;SDS011;71268;44.086;3.070;2023-12-04T12:17:44;3.53;;;1.40;;
81830;SDS011;71268;44.086;3.070;2023-12-04T12:20:11;2.88;;;1.70;;
81830;SDS011;71268;44.086;3.070;2023-12-04T12:22:38;2.97;;;1.10;;
81830;SDS011;71268;44.086;3.070;2023-12-04T12:25:11;3.13;;;1.40;;
81830;SDS011;71268;44.086;3.070;2023-12-04T12:27:37;4.70;;;1.77;;
81830;SDS011;71268;44.086;3.070;2023-12-04T12:30:04;3.75;;;1.70;;
81830;SDS011;71268;44.086;3.070;2023-12-04T12:32:31;4.95;;;1.58;;
81830;SDS011;71268;44.086;3.070;2023-12-04T12:34:57;2.67;;;1.33;;
81830;SDS011;71268;44.086;3.070;2023-12-04T12:37:23;5.13;;;1.45;;
81830;SDS011;71268;44.086;3.070;2023-12-04T12:39:50;3.72;;;1.80;;
81830;SDS011;71268;44.086;3.070;2023-12-04T12:42:26;3.00;;;1.52;;
81830;SDS011;71268;44.086;3.070;2023-12-04T12:44:53;2.63;;;1.17;;
81830;SDS011;71268;44.086;3.070;2023-12-04T12:47:20;3.97;;;1.42;;
81830;SDS011;71268;44.086;3.070;2023-12-04T12:49:46;3.60;;;1.52;;
81830;SDS011;71268;44.086;3.070;2023-12-04T12:52:12;4.43;;;1.25;;
81830;SDS011;71268;44.086;3.070;2023-12-04T12:54:42;2.72;;;0.98;;
81830;SDS011;71268;44.086;3.070;2023-12-04T12:59:34;2.88;;;0.98;;
81830;SDS011;71268;44.086;3.070;2023-12-04T13:02:00;2.95;;;1.42;;
81830;SDS011;71268;44.086;3.070;2023-12-04T13:04:36;3.13;;;1.25;;
81830;SDS011;71268;44.086;3.070;2023-12-04T13:07:02;5.05;;;1.50;;
81830;SDS011;71268;44.086;3.070;2023-12-04T13:09:29;4.20;;;1.75;;
81830;SDS011;71268;44.086;3.070;2023-12-04T13:11:55;2.85;;;1.40;;
81830;SDS011;71268;44.086;3.070;2023-12-04T13:14:21;2.88;;;1.30;;
81830;SDS011;71268;44.086;3.070;2023-12-04T13:16:47;5.63;;;1.95;;
81830;SDS011;71268;44.086;3.070;2023-12-04T13:19:13;4.78;;;1.50;;
81830;SDS011;71268;44.086;3.070;2023-12-04T13:21:42;3.90;;;1.45;;
81830;SDS011;71268;44.086;3.070;2023-12-04T13:24:08;3.13;;;1.55;;
81830;SDS011;71268;44.086;3.070;2023-12-04T13:26:36;2.67;;;1.00;;
81830;SDS011;71268;44.086;3.070;2023-12-04T13:29:02;2.35;;;1.23;;
81830;SDS011;71268;44.086;3.070;2023-12-04T13:31:28;3.83;;;1.38;;
81830;SDS011;71268;44.086;3.070;2023-12-04T13:33:54;3.13;;;1.30;;
81830;SDS011;71268;44.086;3.070;2023-12-04T13:36:20;4.75;;;1.30;;
81830;SDS011;71268;44.086;3.070;2023-12-04T13:38:46;3.83;;;1.48;;
81830;SDS011;71268;44.086;3.070;2023-12-04T13:41:12;4.00;;;1.33;;
81830;SDS011;71268;44.086;3.070;2023-12-04T13:43:58;2.05;;;1.02;;
81830;SDS011;71268;44.086;3.070;2023-12-04T13:46:25;3.40;;;1.42;;
81830;SDS011;71268;44.086;3.070;2023-12-04T13:48:52;3.72;;;1.67;;
81830;SDS011;71268;44.086;3.070;2023-12-04T13:51:18;3.17;;;1.33;;
81830;SDS011;71268;44.086;3.070;2023-12-04T13:53:45;3.42;;;1.58;;
81830;SDS011;71268;44.086;3.070;2023-12-04T13:56:14;2.08;;;1.20;;
81830;SDS011;71268;44.086;3.070;2023-12-04T13:58:47;3.50;;;1.30;;
81830;SDS011;71268;44.086;3.070;2023-12-04T14:01:18;2.47;;;1.42;;
81830;SDS011;71268;44.086;3.070;2023-12-04T14:03:48;3.97;;;1.50;;
81830;SDS011;71268;44.086;3.070;2023-12-04T14:06:14;6.35;;;3.13;;
81830;SDS011;71268;44.086;3.070;2023-12-04T14:08:41;3.10;;;1.60;;
81830;SDS011;71268;44.086;3.070;2023-12-04T14:11:07;3.88;;;1.60;;
81830;SDS011;71268;44.086;3.070;2023-12-04T14:13:35;2.47;;;1.20;;
81830;SDS011;71268;44.086;3.070;2023-12-04T14:16:01;3.83;;;1.65;;
81830;SDS011;71268;44.086;3.070;2023-12-04T14:18:27;3.42;;;1.73;;
81830;SDS011;71268;44.086;3.070;2023-12-04T14:20:55;5.20;;;1.60;;
81830;SDS011;71268;44.086;3.070;2023-12-04T14:23:21;5.43;;;1.65;;
81830;SDS011;71268;44.086;3.070;2023-12-04T14:25:47;4.88;;;2.08;;
81830;SDS011;71268;44.086;3.070;2023-12-04T14:28:13;4.55;;;1.80;;
81830;SDS011;71268;44.086;3.070;2023-12-04T14:30:39;4.03;;;1.58;;
81830;SDS011;71268;44.086;3.070;2023-12-04T14:33:06;3.47;;;1.40;;
81830;SDS011;71268;44.086;3.070;2023-12-04T14:35:32;2.35;;;1.45;;
81830;SDS011;71268;44.086;3.070;2023-12-04T14:37:58;6.50;;;1.80;;
81830;SDS011;71268;44.086;3.070;2023-12-04T14:40:24;5.97;;;1.20;;
81830;SDS011;71268;44.086;3.070;2023-12-04T14:42:50;2.17;;;1.20;;
81830;SDS011;71268;44.086;3.070;2023-12-04T14:45:16;3.47;;;1.00;;
81830;SDS011;71268;44.086;3.070;2023-12-04T14:47:42;3.13;;;1.25;;